createdAt,value
2018-09-29T00:02:21.256Z,3.67
2018-09-29T00:04:49.439Z,4.03
2018-09-29T00:07:17.614Z,4.27
2018-09-29T00:09:45.799Z,3.40
2018-09-29T00:12:13.958Z,3.80
2018-09-29T00:14:42.142Z,3.60
2018-09-29T00:17:10.306Z,3.90
2018-09-29T00:19:38.473Z,3.73
2018-09-29T00:22:06.863Z,3.77
2018-09-29T00:24:35.030Z,4.50
2018-09-29T00:27:03.200Z,3.50
2018-09-29T00:29:31.346Z,2.80
2018-09-29T00:31:59.574Z,2.73
2018-09-29T00:34:27.742Z,2.40
2018-09-29T00:36:55.905Z,2.87
2018-09-29T00:39:24.063Z,2.80
2018-09-29T00:41:52.206Z,2.60
2018-09-29T00:44:20.357Z,2.03
2018-09-29T00:46:48.559Z,2.33
2018-09-29T00:49:16.710Z,2.23
2018-09-29T00:51:44.891Z,2.10
2018-09-29T00:54:12.813Z,2.10
2018-09-29T00:56:40.752Z,2.23
2018-09-29T00:59:08.917Z,1.97
2018-09-29T01:01:37.061Z,2.40
2018-09-29T01:04:05.245Z,2.13
2018-09-29T01:06:33.406Z,2.37
2018-09-29T01:09:01.575Z,2.63
2018-09-29T01:11:29.733Z,2.43
2018-09-29T01:13:57.897Z,1.80
2018-09-29T01:16:26.106Z,2.73
2018-09-29T01:18:54.013Z,2.10
2018-09-29T01:21:22.171Z,2.47
2018-09-29T01:23:50.356Z,2.00
2018-09-29T01:26:18.530Z,2.47
2018-09-29T01:28:46.698Z,2.30
2018-09-29T01:31:14.842Z,2.80
2018-09-29T01:33:43.026Z,2.20
2018-09-29T01:36:11.182Z,2.33
2018-09-29T01:38:39.393Z,2.33
2018-09-29T01:41:07.550Z,2.40
2018-09-29T01:43:35.813Z,2.40
2018-09-29T01:46:03.962Z,1.90
2018-09-29T01:48:32.126Z,2.27
2018-09-29T01:51:00.285Z,2.00
2018-09-29T01:53:28.454Z,2.17
2018-09-29T01:55:56.631Z,1.87
2018-09-29T01:58:24.794Z,2.20
2018-09-29T02:00:52.957Z,2.20
2018-09-29T02:03:21.106Z,1.97
2018-09-29T02:05:49.274Z,2.70
2018-09-29T02:08:17.213Z,2.53
2018-09-29T02:10:45.365Z,2.17
2018-09-29T02:13:13.519Z,2.40
2018-09-29T02:15:41.679Z,2.00
2018-09-29T02:18:09.817Z,2.20
2018-09-29T02:20:38.041Z,2.33
2018-09-29T02:23:06.178Z,2.37
2018-09-29T02:25:34.334Z,2.57
2018-09-29T02:28:02.244Z,2.70
2018-09-29T02:30:30.402Z,2.23
2018-09-29T02:32:58.571Z,1.73
2018-09-29T02:35:26.725Z,2.10
2018-09-29T02:37:54.673Z,2.13
2018-09-29T02:40:22.601Z,2.60
2018-09-29T02:42:50.762Z,2.20
2018-09-29T02:45:18.701Z,2.53
2018-09-29T02:47:46.623Z,2.30
2018-09-29T02:50:14.770Z,2.17
2018-09-29T02:52:42.923Z,2.13
2018-09-29T02:55:10.864Z,3.23
2018-09-29T02:57:39.009Z,2.40
2018-09-29T03:00:07.161Z,2.20
2018-09-29T03:02:35.334Z,2.50
2018-09-29T03:05:03.517Z,2.13
2018-09-29T03:07:31.425Z,2.10
2018-09-29T03:09:59.614Z,2.37
2018-09-29T03:12:27.769Z,2.47
2018-09-29T03:14:55.982Z,2.67
2018-09-29T03:17:24.126Z,2.27
2018-09-29T03:19:52.316Z,2.97
2018-09-29T03:22:20.455Z,2.80
2018-09-29T03:24:48.628Z,2.30
2018-09-29T03:27:16.777Z,2.43
2018-09-29T03:29:44.939Z,2.77
2018-09-29T03:32:13.105Z,2.43
2018-09-29T03:34:41.262Z,3.13
2018-09-29T03:37:09.398Z,2.53
2018-09-29T03:39:37.546Z,2.33
2018-09-29T03:42:05.700Z,2.37
2018-09-29T03:44:33.861Z,2.73
2018-09-29T03:47:02.014Z,2.43
2018-09-29T03:49:30.189Z,2.93
2018-09-29T03:51:58.140Z,2.17
2018-09-29T03:54:26.293Z,2.10
2018-09-29T03:56:54.465Z,2.77
2018-09-29T03:59:22.638Z,2.17
2018-09-29T04:01:50.789Z,2.20
2018-09-29T04:04:18.729Z,2.07
2018-09-29T04:06:46.891Z,2.23
2018-09-29T04:09:14.862Z,2.47
2018-09-29T04:11:43.025Z,2.40
2018-09-29T04:14:10.953Z,2.13
2018-09-29T04:16:38.929Z,1.90
2018-09-29T04:19:06.893Z,2.30
2018-09-29T04:21:40.886Z,2.70
2018-09-29T04:24:09.053Z,2.43
2018-09-29T04:26:36.994Z,1.97
2018-09-29T04:29:05.195Z,1.87
2018-09-29T04:31:33.353Z,2.03
2018-09-29T04:34:01.544Z,2.17
2018-09-29T04:36:29.718Z,1.97
2018-09-29T04:38:57.878Z,2.13
2018-09-29T04:41:26.085Z,2.73
2018-09-29T04:43:54.017Z,2.30
2018-09-29T04:46:22.185Z,1.90
2018-09-29T04:48:50.336Z,2.57
2018-09-29T04:51:18.507Z,2.40
2018-09-29T04:53:46.678Z,2.30
2018-09-29T04:56:14.857Z,2.00
2018-09-29T04:58:43.014Z,2.20
2018-09-29T05:01:11.176Z,1.93
2018-09-29T05:03:39.313Z,2.30
2018-09-29T05:06:07.690Z,2.20
2018-09-29T05:08:35.844Z,2.40
2018-09-29T05:11:04.082Z,2.90
2018-09-29T05:13:32.250Z,2.10
2018-09-29T05:16:00.402Z,2.20
2018-09-29T05:18:28.603Z,2.40
2018-09-29T05:20:56.767Z,2.10
2018-09-29T05:23:24.961Z,1.80
2018-09-29T05:25:53.126Z,2.03
2018-09-29T05:28:21.045Z,1.90
2018-09-29T05:30:49.209Z,2.30
2018-09-29T05:33:17.133Z,2.10
2018-09-29T05:35:45.056Z,2.13
2018-09-29T05:38:13.221Z,2.00
2018-09-29T05:40:41.391Z,2.43
2018-09-29T05:43:09.590Z,2.33
2018-09-29T05:45:37.757Z,1.80
2018-09-29T05:48:05.913Z,1.93
2018-09-29T05:50:34.079Z,2.10
2018-09-29T05:53:02.049Z,2.10
2018-09-29T05:55:30.226Z,2.53
2018-09-29T05:57:58.418Z,2.53
2018-09-29T06:00:26.648Z,3.03
2018-09-29T06:02:54.758Z,2.13
2018-09-29T06:05:23.003Z,2.50
2018-09-29T06:07:51.096Z,2.20
2018-09-29T06:10:19.246Z,1.80
2018-09-29T06:12:47.401Z,2.50
2018-09-29T06:15:15.330Z,2.30
2018-09-29T06:17:43.694Z,2.17
2018-09-29T06:20:11.632Z,1.77
2018-09-29T06:22:39.845Z,2.23
2018-09-29T06:25:08.018Z,3.80
2018-09-29T06:27:36.190Z,4.73
2018-09-29T06:30:04.466Z,3.77
2018-09-29T06:32:32.385Z,3.67
2018-09-29T06:35:00.544Z,4.93
2018-09-29T06:37:28.489Z,3.57
2018-09-29T06:39:56.707Z,8.17
2018-09-29T06:42:24.873Z,8.77
2018-09-29T06:44:52.886Z,6.10
2018-09-29T06:47:20.814Z,3.30
2018-09-29T06:49:48.729Z,2.00
2018-09-29T06:52:16.926Z,2.27
2018-09-29T06:54:44.909Z,2.27
2018-09-29T06:57:13.080Z,2.20
2018-09-29T06:59:41.253Z,1.70
2018-09-29T07:02:09.418Z,1.60
2018-09-29T07:04:37.574Z,2.07
2018-09-29T07:07:05.565Z,1.80
2018-09-29T07:09:33.725Z,1.87
2018-09-29T07:12:01.877Z,1.77
2018-09-29T07:14:29.881Z,2.00
2018-09-29T07:16:57.802Z,2.33
2018-09-29T07:19:25.966Z,2.13
2018-09-29T07:21:54.194Z,1.90
2018-09-29T07:24:22.351Z,1.80
2018-09-29T07:26:50.510Z,2.03
2018-09-29T07:29:18.682Z,1.97
2018-09-29T07:31:46.834Z,2.17
2018-09-29T07:34:14.771Z,1.80
2018-09-29T07:36:42.969Z,1.50
2018-09-29T07:39:11.443Z,1.80
2018-09-29T07:41:39.779Z,2.17
2018-09-29T07:44:08.478Z,1.83
2018-09-29T07:46:36.618Z,1.43
2018-09-29T07:49:04.930Z,1.60
2018-09-29T07:51:32.860Z,1.70
2018-09-29T07:54:01.026Z,2.07
2018-09-29T07:56:28.934Z,1.47
2018-09-29T07:58:57.085Z,1.67
2018-09-29T08:01:25.254Z,1.90
2018-09-29T08:03:53.434Z,1.30
2018-09-29T08:06:21.666Z,1.70
2018-09-29T08:08:49.807Z,1.57
2018-09-29T08:11:17.729Z,1.37
2018-09-29T08:13:45.797Z,1.40
2018-09-29T08:16:13.953Z,1.67
2018-09-29T08:18:42.086Z,1.70
2018-09-29T08:21:10.019Z,1.70
2018-09-29T08:23:38.170Z,1.33
2018-09-29T08:26:06.339Z,1.50
2018-09-29T08:28:34.502Z,1.70
2018-09-29T08:31:02.647Z,1.50
2018-09-29T08:33:30.811Z,1.47
2018-09-29T08:35:58.951Z,1.57
2018-09-29T08:38:27.434Z,1.97
2018-09-29T08:40:55.621Z,1.63
2018-09-29T08:43:23.906Z,1.80
2018-09-29T08:45:53.221Z,1.80
2018-09-29T08:48:21.221Z,1.50
2018-09-29T08:50:49.144Z,1.47
2018-09-29T08:53:17.227Z,1.50
2018-09-29T08:55:45.118Z,2.43
2018-09-29T08:58:13.266Z,1.77
2018-09-29T09:00:41.446Z,1.40
2018-09-29T09:03:09.377Z,1.77
2018-09-29T09:05:37.546Z,1.97
2018-09-29T09:08:05.472Z,1.57
2018-09-29T09:10:33.642Z,1.53
2018-09-29T09:13:01.806Z,1.50
2018-09-29T09:15:29.986Z,1.80
2018-09-29T09:17:58.223Z,1.63
2018-09-29T09:20:26.415Z,1.40
2018-09-29T09:22:54.621Z,1.80
2018-09-29T09:25:22.557Z,1.50
2018-09-29T09:27:50.713Z,1.60
2018-09-29T09:30:19.039Z,1.83
2018-09-29T09:32:47.137Z,1.53
2018-09-29T09:35:15.312Z,1.57
2018-09-29T09:37:43.226Z,1.60
2018-09-29T09:40:11.416Z,1.83
2018-09-29T09:42:39.561Z,1.97
2018-09-29T09:45:07.795Z,1.93
2018-09-29T09:47:35.950Z,1.87
2018-09-29T09:50:04.146Z,2.13
2018-09-29T09:52:32.306Z,1.40
2018-09-29T09:55:00.475Z,1.87
2018-09-29T09:57:28.409Z,1.93
2018-09-29T09:59:56.715Z,2.07
2018-09-29T10:03:28.867Z,2.70
2018-09-29T10:05:57.290Z,1.83
2018-09-29T10:08:25.442Z,2.10
2018-09-29T10:10:53.662Z,1.80
2018-09-29T10:13:21.838Z,1.90
2018-09-29T10:15:50.110Z,1.90
2018-09-29T10:18:18.294Z,2.30
2018-09-29T10:20:46.458Z,2.40
2018-09-29T10:23:14.631Z,2.60
2018-09-29T10:25:42.807Z,2.50
2018-09-29T10:28:11.010Z,2.80
2018-09-29T10:30:38.964Z,3.20
2018-09-29T10:33:07.129Z,2.33
2018-09-29T10:35:35.377Z,2.00
2018-09-29T10:38:03.531Z,2.23
2018-09-29T10:40:31.729Z,2.30
2018-09-29T10:42:59.918Z,2.60
2018-09-29T10:45:28.100Z,2.70
2018-09-29T10:47:56.247Z,2.70
2018-09-29T10:50:24.486Z,2.57
2018-09-29T10:52:52.691Z,2.80
2018-09-29T10:55:20.806Z,2.87
2018-09-29T10:57:48.966Z,3.53
2018-09-29T11:00:17.125Z,3.33
2018-09-29T11:02:45.367Z,3.47
2018-09-29T11:05:13.500Z,3.50
2018-09-29T11:07:41.661Z,3.50
2018-09-29T11:10:09.847Z,4.40
2018-09-29T11:12:38.053Z,3.40
2018-09-29T11:15:06.259Z,3.90
2018-09-29T11:17:34.402Z,4.43
2018-09-29T11:20:02.565Z,3.33
2018-09-29T11:22:30.746Z,4.00
2018-09-29T11:24:58.918Z,3.70
2018-09-29T11:27:27.091Z,3.97
2018-09-29T11:29:55.259Z,4.20
2018-09-29T11:32:23.417Z,4.10
2018-09-29T11:34:51.356Z,3.90
2018-09-29T11:37:19.514Z,4.47
2018-09-29T11:39:47.677Z,4.30
2018-09-29T11:42:15.834Z,4.00
2018-09-29T11:44:44.011Z,4.17
2018-09-29T11:47:12.161Z,4.37
2018-09-29T11:49:40.349Z,3.93
2018-09-29T11:52:08.537Z,3.93
2018-09-29T11:54:36.702Z,3.80
2018-09-29T11:57:04.648Z,4.17
2018-09-29T11:59:32.816Z,4.00
2018-09-29T12:02:00.791Z,5.27
2018-09-29T12:04:28.981Z,3.20
2018-09-29T12:06:57.153Z,2.97
2018-09-29T12:09:25.342Z,3.40
2018-09-29T12:11:53.518Z,3.83
2018-09-29T12:14:21.679Z,3.73
2018-09-29T12:16:49.857Z,2.80
2018-09-29T12:19:17.777Z,3.50
2018-09-29T12:21:46.002Z,2.77
2018-09-29T12:24:13.926Z,3.43
2018-09-29T12:26:42.086Z,3.40
2018-09-29T12:29:10.014Z,3.77
2018-09-29T12:31:38.178Z,3.00
2018-09-29T12:34:06.354Z,3.70
2018-09-29T12:36:34.576Z,3.53
2018-09-29T12:39:02.519Z,4.13
2018-09-29T12:41:30.739Z,3.80
2018-09-29T12:43:58.684Z,3.37
2018-09-29T12:46:26.616Z,3.63
2018-09-29T12:48:54.774Z,3.30
2018-09-29T12:51:22.993Z,2.90
2018-09-29T12:53:51.123Z,3.30
2018-09-29T12:56:19.086Z,2.93
2018-09-29T12:58:47.313Z,3.27
2018-09-29T13:01:15.556Z,3.37
2018-09-29T13:03:43.818Z,2.73
2018-09-29T13:06:11.995Z,3.10
2018-09-29T13:08:40.162Z,3.40
2018-09-29T13:11:08.448Z,3.00
2018-09-29T13:13:36.322Z,3.17
2018-09-29T13:16:04.483Z,3.10
2018-09-29T13:18:32.774Z,3.20
2018-09-29T13:21:00.933Z,3.00
2018-09-29T13:23:28.901Z,3.03
2018-09-29T13:25:57.066Z,2.90
2018-09-29T13:28:25.258Z,3.80
2018-09-29T13:30:53.196Z,2.50
2018-09-29T13:33:21.366Z,2.93
2018-09-29T13:35:49.573Z,2.70
2018-09-29T13:38:17.745Z,3.07
2018-09-29T13:40:45.914Z,2.47
2018-09-29T13:43:14.100Z,2.67
2018-09-29T13:45:42.049Z,2.67
2018-09-29T13:48:09.972Z,2.80
2018-09-29T13:50:38.129Z,2.93
2018-09-29T13:53:06.578Z,3.13
2018-09-29T13:55:34.758Z,3.17
2018-09-29T13:58:02.949Z,3.03
2018-09-29T14:00:31.430Z,2.57
2018-09-29T14:02:59.698Z,2.37
2018-09-29T14:05:27.858Z,2.30
2018-09-29T14:07:56.023Z,2.43
2018-09-29T14:10:24.189Z,2.47
2018-09-29T14:12:52.369Z,2.73
2018-09-29T14:15:20.537Z,2.70
2018-09-29T14:17:48.734Z,2.53
2018-09-29T14:20:16.902Z,2.37
2018-09-29T14:22:44.864Z,2.53
2018-09-29T14:25:13.049Z,2.53
2018-09-29T14:27:41.211Z,2.37
2018-09-29T14:30:09.390Z,2.33
2018-09-29T14:32:37.529Z,2.70
2018-09-29T14:35:05.786Z,2.30
2018-09-29T14:37:34.014Z,2.43
2018-09-29T14:40:02.196Z,2.30
2018-09-29T14:42:30.406Z,2.07
2018-09-29T14:44:58.597Z,2.17
2018-09-29T14:47:26.532Z,2.20
2018-09-29T14:49:54.773Z,2.90
2018-09-29T14:52:22.724Z,2.70
2018-09-29T14:54:50.842Z,2.63
2018-09-29T14:57:18.994Z,2.97
2018-09-29T14:59:47.190Z,2.80
2018-09-29T15:02:15.342Z,2.47
2018-09-29T15:04:43.481Z,1.97
2018-09-29T15:07:11.413Z,2.73
2018-09-29T15:09:39.579Z,2.80
2018-09-29T15:12:07.858Z,2.40
2018-09-29T15:14:36.038Z,2.20
2018-09-29T15:17:04.218Z,2.20
2018-09-29T15:19:32.213Z,2.40
2018-09-29T15:22:00.501Z,2.63
2018-09-29T15:24:28.685Z,2.47
2018-09-29T15:26:56.853Z,2.60
2018-09-29T15:29:25.018Z,2.40
2018-09-29T15:31:52.944Z,2.13
2018-09-29T15:34:20.866Z,2.67
2018-09-29T15:36:49.115Z,2.40
2018-09-29T15:39:17.214Z,2.00
2018-09-29T15:41:45.406Z,2.50
2018-09-29T15:44:13.594Z,2.87
2018-09-29T15:46:41.757Z,2.30
2018-09-29T15:49:09.936Z,2.63
2018-09-29T15:51:38.369Z,2.50
2018-09-29T15:54:06.595Z,2.47
2018-09-29T15:56:34.774Z,2.47
2018-09-29T15:59:03.077Z,2.30
2018-09-29T16:01:31.313Z,2.43
2018-09-29T16:03:59.242Z,2.90
2018-09-29T16:06:27.484Z,2.50
2018-09-29T16:08:55.816Z,2.60
2018-09-29T16:11:24.979Z,2.42
2018-09-29T16:13:52.908Z,2.50
2018-09-29T16:16:20.840Z,2.60
2018-09-29T16:18:48.799Z,2.90
2018-09-29T16:21:17.354Z,2.50
2018-09-29T16:23:45.272Z,1.97
2018-09-29T16:26:13.206Z,2.83
2018-09-29T16:28:41.129Z,2.40
2018-09-29T16:31:09.298Z,2.50
2018-09-29T16:33:37.467Z,2.57
2018-09-29T16:36:05.950Z,2.23
2018-09-29T16:38:34.184Z,2.20
2018-09-29T16:41:02.277Z,2.63
2018-09-29T16:43:30.437Z,2.13
2018-09-29T16:45:58.599Z,2.50
2018-09-29T16:48:26.794Z,2.17
2018-09-29T16:50:54.698Z,2.30
2018-09-29T16:53:22.873Z,2.10
2018-09-29T16:55:51.046Z,2.70
2018-09-29T16:58:19.207Z,1.97
2018-09-29T17:00:47.265Z,2.33
2018-09-29T17:03:15.484Z,2.37
2018-09-29T17:05:43.716Z,2.87
2018-09-29T17:08:11.885Z,4.50
2018-09-29T17:10:39.841Z,3.70
2018-09-29T17:13:08.083Z,3.50
2018-09-29T17:15:36.278Z,2.87
2018-09-29T17:18:04.437Z,2.40
2018-09-29T17:20:32.364Z,2.87
2018-09-29T17:23:00.553Z,3.07
2018-09-29T17:25:28.722Z,3.03
2018-09-29T17:27:56.732Z,3.10
2018-09-29T17:30:24.901Z,3.33
2018-09-29T17:32:53.177Z,3.20
2018-09-29T17:35:21.106Z,3.10
2018-09-29T17:37:49.349Z,2.90
2018-09-29T17:40:17.523Z,3.10
2018-09-29T17:42:45.733Z,3.17
2018-09-29T17:45:13.961Z,3.17
2018-09-29T17:47:41.894Z,3.77
2018-09-29T17:50:10.373Z,3.83
2018-09-29T17:52:38.326Z,3.97
2018-09-29T17:55:06.561Z,3.83
2018-09-29T17:57:34.714Z,3.80
2018-09-29T18:00:02.925Z,3.83
2018-09-29T18:02:31.094Z,4.20
2018-09-29T18:04:59.273Z,4.67
2018-09-29T18:07:27.437Z,3.47
2018-09-29T18:09:55.630Z,3.70
2018-09-29T18:12:23.785Z,5.00
2018-09-29T18:14:51.938Z,4.67
2018-09-29T18:17:20.103Z,4.60
2018-09-29T18:19:48.338Z,3.63
2018-09-29T18:22:16.506Z,3.30
2018-09-29T18:24:44.666Z,3.30
2018-09-29T18:27:12.928Z,2.90
2018-09-29T18:29:41.153Z,2.87
2018-09-29T18:32:09.523Z,3.57
2018-09-29T18:34:37.614Z,3.13
2018-09-29T18:37:05.570Z,2.70
2018-09-29T18:39:33.750Z,3.37
2018-09-29T18:42:01.923Z,2.93
2018-09-29T18:44:30.095Z,3.20
2018-09-29T18:46:58.305Z,3.27
2018-09-29T18:49:26.564Z,3.35
2018-09-29T18:51:54.695Z,3.10
2018-09-29T18:54:22.866Z,4.40
2018-09-29T18:56:51.145Z,3.30
2018-09-29T18:59:19.402Z,4.20
2018-09-29T19:01:47.609Z,3.50
2018-09-29T19:04:15.762Z,3.67
2018-09-29T19:06:43.942Z,7.23
2018-09-29T19:09:13.182Z,8.10
2018-09-29T19:11:42.358Z,8.80
2018-09-29T19:14:10.552Z,8.07
2018-09-29T19:16:38.501Z,7.80
2018-09-29T19:19:06.822Z,6.60
2018-09-29T19:21:34.801Z,6.60
2018-09-29T19:24:03.046Z,6.07
2018-09-29T19:26:31.322Z,5.97
2018-09-29T19:28:59.286Z,5.80
2018-09-29T19:31:27.448Z,5.87
2018-09-29T19:33:55.695Z,5.57
2018-09-29T19:36:23.908Z,5.53
2018-09-29T19:38:52.082Z,5.50
2018-09-29T19:41:20.626Z,5.70
2018-09-29T19:43:48.851Z,4.80
2018-09-29T19:46:16.798Z,4.60
2018-09-29T19:48:44.753Z,5.07
2018-09-29T19:51:13.020Z,4.83
2018-09-29T19:53:41.171Z,4.63
2018-09-29T19:56:09.337Z,4.17
2018-09-29T19:58:37.637Z,4.70
2018-09-29T20:01:05.830Z,4.07
2018-09-29T20:03:34.027Z,4.03
2018-09-29T20:06:02.162Z,3.63
2018-09-29T20:08:30.373Z,3.97
2018-09-29T20:10:58.614Z,4.80
2018-09-29T20:13:26.569Z,4.47
2018-09-29T20:15:54.890Z,3.70
2018-09-29T20:18:22.821Z,3.57
2018-09-29T20:20:50.994Z,3.60
2018-09-29T20:23:19.138Z,4.07
2018-09-29T20:25:47.080Z,4.37
2018-09-29T20:28:15.290Z,4.67
2018-09-29T20:30:43.222Z,4.00
2018-09-29T20:33:11.402Z,3.97
2018-09-29T20:35:39.570Z,6.83
2018-09-29T20:38:07.729Z,6.57
2018-09-29T20:40:36.019Z,5.20
2018-09-29T20:43:04.194Z,5.83
2018-09-29T20:45:32.385Z,5.17
2018-09-29T20:48:00.313Z,5.53
2018-09-29T20:50:28.256Z,5.50
2018-09-29T20:52:56.466Z,6.23
2018-09-29T20:55:24.652Z,5.77
2018-09-29T20:57:52.853Z,5.20
2018-09-29T21:00:21.013Z,5.00
2018-09-29T21:02:49.208Z,5.27
2018-09-29T21:05:17.377Z,4.87
2018-09-29T21:07:45.543Z,4.80
2018-09-29T21:10:13.705Z,5.27
2018-09-29T21:12:41.906Z,5.60
2018-09-29T21:15:10.039Z,5.07
2018-09-29T21:17:38.790Z,5.07
2018-09-29T21:20:06.709Z,5.40
2018-09-29T21:22:34.922Z,5.03
2018-09-29T21:25:03.103Z,5.90
2018-09-29T21:27:31.050Z,5.47
2018-09-29T21:29:59.374Z,5.57
2018-09-29T21:32:27.538Z,5.37
2018-09-29T21:34:55.713Z,5.97
2018-09-29T21:37:23.882Z,4.87
2018-09-29T21:39:52.062Z,6.20
2018-09-29T21:42:20.306Z,6.40
2018-09-29T21:44:48.185Z,4.93
2018-09-29T21:47:16.356Z,5.20
2018-09-29T21:49:44.286Z,5.50
2018-09-29T21:52:12.512Z,5.40
2018-09-29T21:54:40.621Z,5.43
2018-09-29T21:57:08.815Z,5.10
2018-09-29T21:59:36.973Z,6.57
2018-09-29T22:02:05.157Z,6.77
2018-09-29T22:04:33.508Z,6.17
2018-09-29T22:07:01.623Z,5.03
2018-09-29T22:09:29.781Z,6.33
2018-09-29T22:11:58.039Z,5.20
2018-09-29T22:14:26.205Z,5.27
2018-09-29T22:16:54.133Z,5.37
2018-09-29T22:19:22.309Z,5.27
2018-09-29T22:21:50.486Z,5.20
2018-09-29T22:24:18.645Z,5.20
2018-09-29T22:26:46.856Z,4.87
2018-09-29T22:29:15.062Z,5.07
2018-09-29T22:31:43.254Z,5.43
2018-09-29T22:34:11.428Z,5.67
2018-09-29T22:36:39.601Z,4.67
2018-09-29T22:39:09.446Z,4.97
2018-09-29T22:41:37.692Z,4.73
2018-09-29T22:44:05.659Z,5.70
2018-09-29T22:46:33.839Z,5.37
2018-09-29T22:49:02.109Z,5.03
2018-09-29T22:51:30.334Z,5.13
2018-09-29T22:53:58.462Z,5.77
2018-09-29T22:56:26.676Z,5.07
2018-09-29T22:58:54.898Z,4.90
2018-09-29T23:01:23.079Z,4.63
2018-09-29T23:03:51.257Z,5.17
2018-09-29T23:06:19.446Z,4.90
2018-09-29T23:08:47.640Z,5.10
2018-09-29T23:11:15.793Z,4.60
2018-09-29T23:13:43.970Z,4.80
2018-09-29T23:16:11.913Z,4.97
2018-09-29T23:18:40.106Z,4.40
2018-09-29T23:21:08.356Z,4.93
2018-09-29T23:23:36.526Z,5.10
2018-09-29T23:26:04.706Z,5.00
2018-09-29T23:28:32.878Z,4.90
2018-09-29T23:31:01.086Z,4.63
2018-09-29T23:33:29.313Z,4.57
2018-09-29T23:35:57.500Z,4.70
2018-09-29T23:38:25.673Z,4.63
2018-09-29T23:40:53.842Z,4.33
2018-09-29T23:43:31.265Z,4.47
2018-09-29T23:45:59.435Z,4.50
2018-09-29T23:48:27.609Z,4.00
2018-09-29T23:50:55.773Z,5.10
2018-09-29T23:53:23.708Z,4.80
2018-09-29T23:55:51.865Z,5.70
2018-09-29T23:58:20.029Z,5.57
